Time,TemperatureF,DewpointF,PressureIn,WindDirection,WindDirectionDegrees,WindSpeedMPH,WindSpeedGustMPH,Humidity,HourlyPrecipIn,Conditions,Clouds,dailyrainin,SoftwareType,DateUTC
2013-06-10 00:01:00,66.0,66.0,30.12,South,178,0.0,1.0,100,0.09,,,0.01,Wunderground v.1.15,2013-06-10 04:01:00,
2013-06-10 00:02:00,66.0,66.0,30.13,South,178,1.0,1.0,100,0.09,,,0.01,Wunderground v.1.15,2013-06-10 04:02:00,
2013-06-10 00:07:00,66.0,66.0,30.13,South,178,1.0,1.0,100,0.08,,,0.01,Wunderground v.1.15,2013-06-10 04:07:00,
2013-06-10 00:12:00,66.0,66.0,30.12,SSW,202,0.0,2.0,100,0.08,,,0.02,Wunderground v.1.15,2013-06-10 04:12:00,
2013-06-10 00:17:00,66.0,66.0,30.12,SSW,202,0.0,2.0,100,0.11,,,0.03,Wunderground v.1.15,2013-06-10 04:17:00,
2013-06-10 00:22:00,66.0,66.0,30.12,SSW,202,0.0,1.0,100,0.08,,,0.04,Wunderground v.1.15,2013-06-10 04:22:00,
2013-06-10 00:27:00,66.0,66.0,30.12,South,184,7.0,7.0,100,0.08,,,0.04,Wunderground v.1.15,2013-06-10 04:27:00,
2013-06-10 00:32:00,66.1,66.1,30.12,SSE,168,0.0,2.0,100,0.09,,,0.05,Wunderground v.1.15,2013-06-10 04:32:00,
2013-06-10 00:37:00,66.1,66.1,30.11,South,190,0.0,4.0,100,0.07,,,0.06,Wunderground v.1.15,2013-06-10 04:37:00,
2013-06-10 00:42:00,66.2,66.2,30.12,SSE,162,1.0,4.0,100,0.07,,,0.06,Wunderground v.1.15,2013-06-10 04:42:00,
2013-06-10 00:47:00,66.2,66.2,30.12,SSE,160,1.0,4.0,100,0.08,,,0.07,Wunderground v.1.15,2013-06-10 04:47:00,
2013-06-10 00:52:00,66.3,66.3,30.11,SSE,159,2.0,4.0,100,0.07,,,0.07,Wunderground v.1.15,2013-06-10 04:52:00,
2013-06-10 00:57:00,66.3,66.3,30.11,SSE,162,0.0,4.0,100,0.07,,,0.08,Wunderground v.1.15,2013-06-10 04:57:00,
2013-06-10 01:02:00,66.3,66.3,30.11,SSE,168,0.0,3.0,100,0.08,,,0.09,Wunderground v.1.15,2013-06-10 05:02:00,
2013-06-10 01:07:00,66.3,66.3,30.11,SE,136,0.0,3.0,100,0.08,,,0.09,Wunderground v.1.15,2013-06-10 05:07:00,
2013-06-10 01:12:00,66.4,66.4,30.10,South,171,0.0,2.0,100,0.05,,,0.10,Wunderground v.1.15,2013-06-10 05:12:00,
2013-06-10 01:17:00,66.4,66.4,30.10,SSE,155,0.0,2.0,100,0.05,,,0.10,Wunderground v.1.15,2013-06-10 05:17:00,
2013-06-10 01:22:00,66.4,66.4,30.10,SSE,155,2.0,2.0,100,0.05,,,0.10,Wunderground v.1.15,2013-06-10 05:22:00,
2013-06-10 01:27:00,66.4,66.4,30.09,SSE,155,0.0,2.0,100,0.05,,,0.11,Wunderground v.1.15,2013-06-10 05:27:00,
2013-06-10 01:32:00,66.4,66.4,30.09,SSE,155,0.0,1.0,100,0.05,,,0.11,Wunderground v.1.15,2013-06-10 05:32:00,
2013-06-10 01:37:00,66.5,66.5,30.09,South,170,0.0,3.0,100,0.05,,,0.12,Wunderground v.1.15,2013-06-10 05:37:00,
2013-06-10 01:42:00,66.5,66.5,30.09,South,170,0.0,1.0,100,0.10,,,0.13,Wunderground v.1.15,2013-06-10 05:42:00,
2013-06-10 01:47:00,66.5,66.5,30.09,SSE,162,0.0,3.0,100,0.10,,,0.13,Wunderground v.1.15,2013-06-10 05:47:00,
2013-06-10 01:52:00,66.5,66.5,30.09,SSE,165,2.0,3.0,100,0.09,,,0.14,Wunderground v.1.15,2013-06-10 05:52:00,
2013-06-10 01:57:00,66.5,66.5,30.09,SSE,167,1.0,3.0,100,0.13,,,0.15,Wunderground v.1.15,2013-06-10 05:57:00,
2013-06-10 02:02:00,66.5,66.5,30.09,SSE,167,0.0,2.0,100,0.17,,,0.17,Wunderground v.1.15,2013-06-10 06:02:00,
2013-06-10 02:07:00,66.5,66.5,30.08,SSE,167,2.0,2.0,100,0.15,,,0.18,Wunderground v.1.15,2013-06-10 06:07:00,
2013-06-10 02:12:00,66.5,66.5,30.09,SSE,166,0.0,2.0,100,0.15,,,0.19,Wunderground v.1.15,2013-06-10 06:12:00,
2013-06-10 02:17:00,66.5,66.5,30.08,SSE,166,1.0,2.0,100,0.20,,,0.21,Wunderground v.1.15,2013-06-10 06:17:00,
2013-06-10 02:22:00,66.5,66.5,30.08,SSE,167,0.0,1.0,100,0.26,,,0.23,Wunderground v.1.15,2013-06-10 06:22:00,
2013-06-10 02:27:00,66.5,66.5,30.08,SSE,163,2.0,4.0,100,0.18,,,0.24,Wunderground v.1.15,2013-06-10 06:27:00,
2013-06-10 02:32:00,66.5,66.5,30.08,SSE,164,0.0,1.0,100,0.19,,,0.26,Wunderground v.1.15,2013-06-10 06:32:00,
2013-06-10 02:37:00,66.5,66.5,30.08,SSE,164,0.0,1.0,100,0.19,,,0.28,Wunderground v.1.15,2013-06-10 06:37:00,
2013-06-10 02:42:00,66.4,66.4,30.08,South,179,0.0,1.0,100,0.19,,,0.30,Wunderground v.1.15,2013-06-10 06:42:00,
2013-06-10 02:47:00,66.3,66.3,30.08,SSE,157,0.0,5.0,100,0.20,,,0.31,Wunderground v.1.15,2013-06-10 06:47:00,
2013-06-10 02:52:00,66.2,66.2,30.08,South,184,3.0,5.0,100,0.23,,,0.33,Wunderground v.1.15,2013-06-10 06:52:00,
2013-06-10 02:57:00,66.1,66.1,30.08,South,184,1.0,5.0,100,0.21,,,0.35,Wunderground v.1.15,2013-06-10 06:57:00,
2013-06-10 03:02:00,66.0,66.0,30.08,SSE,168,0.0,2.0,100,0.17,,,0.36,Wunderground v.1.15,2013-06-10 07:02:00,
2013-06-10 03:07:00,65.9,65.9,30.08,SSE,164,0.0,2.0,100,0.16,,,0.38,Wunderground v.1.15,2013-06-10 07:07:00,
2013-06-10 03:12:00,65.9,65.9,30.08,SSE,164,0.0,0.0,100,0.20,,,0.39,Wunderground v.1.15,2013-06-10 07:12:00,
2013-06-10 03:17:00,65.8,65.8,30.08,SSE,164,0.0,0.0,100,0.22,,,0.41,Wunderground v.1.15,2013-06-10 07:17:00,
2013-06-10 03:22:00,65.8,65.8,30.07,SSE,164,0.0,0.0,100,0.16,,,0.42,Wunderground v.1.15,2013-06-10 07:22:00,
2013-06-10 03:27:00,65.8,65.8,30.07,SSE,164,0.0,0.0,100,0.15,,,0.44,Wunderground v.1.15,2013-06-10 07:27:00,
2013-06-10 03:32:00,65.8,65.8,30.07,SSE,164,0.0,0.0,100,0.19,,,0.45,Wunderground v.1.15,2013-06-10 07:32:00,
2013-06-10 03:37:00,65.8,65.8,30.07,SSE,164,0.0,1.0,100,0.20,,,0.47,Wunderground v.1.15,2013-06-10 07:37:00,
2013-06-10 03:42:00,65.7,65.7,30.07,SSE,164,0.0,0.0,100,0.14,,,0.48,Wunderground v.1.15,2013-06-10 07:42:00,
2013-06-10 03:47:00,65.7,65.7,30.07,SSE,164,0.0,1.0,100,0.17,,,0.49,Wunderground v.1.15,2013-06-10 07:47:00,
2013-06-10 03:52:00,65.7,65.7,30.06,SSE,164,0.0,0.0,100,0.13,,,0.50,Wunderground v.1.15,2013-06-10 07:52:00,
2013-06-10 03:57:00,65.7,65.7,30.06,SSE,164,0.0,0.0,100,0.13,,,0.51,Wunderground v.1.15,2013-06-10 07:57:00,
2013-06-10 04:02:00,65.7,65.7,30.06,SSE,164,0.0,0.0,100,0.17,,,0.53,Wunderground v.1.15,2013-06-10 08:02:00,
2013-06-10 04:07:00,65.6,65.6,30.06,SSE,164,0.0,0.0,100,0.12,,,0.54,Wunderground v.1.15,2013-06-10 08:07:00,
2013-06-10 04:12:00,65.6,65.6,30.06,SSE,164,0.0,0.0,100,0.16,,,0.55,Wunderground v.1.15,2013-06-10 08:12:00,
2013-06-10 04:17:00,65.6,65.6,30.06,SSE,164,1.0,1.0,100,0.12,,,0.56,Wunderground v.1.15,2013-06-10 08:17:00,
2013-06-10 04:22:00,65.6,65.6,30.06,SSE,164,0.0,0.0,100,0.15,,,0.57,Wunderground v.1.15,2013-06-10 08:22:00,
2013-06-10 04:27:00,65.5,65.5,30.07,SSE,164,0.0,2.0,100,0.12,,,0.58,Wunderground v.1.15,2013-06-10 08:27:00,
2013-06-10 04:32:00,65.5,65.5,30.06,South,175,0.0,4.0,100,0.15,,,0.59,Wunderground v.1.15,2013-06-10 08:32:00,
2013-06-10 04:37:00,65.5,65.5,30.06,SW,215,0.0,4.0,100,0.11,,,0.60,Wunderground v.1.15,2013-06-10 08:37:00,
2013-06-10 04:42:00,65.6,65.6,30.06,SSE,153,0.0,1.0,100,0.14,,,0.61,Wunderground v.1.15,2013-06-10 08:42:00,
2013-06-10 04:47:00,65.5,65.5,30.06,SSE,153,0.0,1.0,100,0.10,,,0.62,Wunderground v.1.15,2013-06-10 08:47:00,
2013-06-10 04:52:00,65.4,65.4,30.06,SSE,151,0.0,1.0,100,0.13,,,0.63,Wunderground v.1.15,2013-06-10 08:52:00,
2013-06-10 04:57:00,65.4,65.4,30.06,SSE,162,1.0,1.0,100,0.09,,,0.64,Wunderground v.1.15,2013-06-10 08:57:00,
2013-06-10 05:02:00,65.3,65.3,30.05,SSE,167,0.0,0.0,100,0.12,,,0.65,Wunderground v.1.15,2013-06-10 09:02:00,
2013-06-10 05:07:00,65.1,65.1,30.06,SE,140,0.0,2.0,100,0.08,,,0.65,Wunderground v.1.15,2013-06-10 09:07:00,
2013-06-10 05:12:00,65.0,65.0,30.06,SE,126,0.0,0.0,100,0.08,,,0.66,Wunderground v.1.15,2013-06-10 09:12:00,
2013-06-10 05:17:00,65.0,65.0,30.06,East,82,1.0,1.0,100,0.10,,,0.67,Wunderground v.1.15,2013-06-10 09:17:00,
2013-06-10 05:22:00,64.9,64.9,30.06,NE,53,0.0,0.0,100,0.07,,,0.68,Wunderground v.1.15,2013-06-10 09:22:00,
2013-06-10 05:27:00,64.9,64.9,30.06,NE,56,0.0,1.0,100,0.07,,,0.68,Wunderground v.1.15,2013-06-10 09:27:00,
2013-06-10 05:32:00,64.8,64.8,30.06,SSE,147,0.0,0.0,100,0.09,,,0.69,Wunderground v.1.15,2013-06-10 09:32:00,
2013-06-10 05:37:00,64.8,64.8,30.06,SSE,147,0.0,0.0,100,0.07,,,0.70,Wunderground v.1.15,2013-06-10 09:37:00,
2013-06-10 05:42:00,64.7,64.7,30.06,SSE,164,0.0,1.0,100,0.07,,,0.70,Wunderground v.1.15,2013-06-10 09:42:00,
2013-06-10 05:47:00,64.7,64.7,30.06,SSE,165,0.0,1.0,100,0.08,,,0.71,Wunderground v.1.15,2013-06-10 09:47:00,
2013-06-10 05:52:00,64.7,64.7,30.06,South,180,0.0,0.0,100,0.08,,,0.71,Wunderground v.1.15,2013-06-10 09:52:00,
2013-06-10 05:57:00,64.6,64.6,30.06,South,180,0.0,0.0,100,0.05,,,0.72,Wunderground v.1.15,2013-06-10 09:57:00,
2013-06-10 06:02:00,64.6,64.6,30.06,South,180,0.0,0.0,100,0.05,,,0.72,Wunderground v.1.15,2013-06-10 10:02:00,
2013-06-10 06:07:00,64.6,64.6,30.06,South,180,0.0,0.0,100,0.06,,,0.73,Wunderground v.1.15,2013-06-10 10:07:00,
2013-06-10 06:12:00,64.7,64.7,30.06,South,180,0.0,1.0,100,0.06,,,0.73,Wunderground v.1.15,2013-06-10 10:12:00,
2013-06-10 06:17:00,64.7,64.7,30.06,South,180,0.0,1.0,100,0.06,,,0.73,Wunderground v.1.15,2013-06-10 10:17:00,
2013-06-10 06:22:00,64.7,64.7,30.06,South,180,0.0,0.0,100,0.04,,,0.73,Wunderground v.1.15,2013-06-10 10:22:00,
2013-06-10 06:27:00,64.7,64.7,30.06,SSE,165,0.0,2.0,100,0.00,,,0.73,Wunderground v.1.15,2013-06-10 10:27:00,
2013-06-10 06:32:00,64.7,64.7,30.07,South,171,0.0,1.0,100,0.00,,,0.73,Wunderground v.1.15,2013-06-10 10:32:00,
2013-06-10 06:37:00,64.7,64.7,30.06,ESE,120,0.0,4.0,100,0.00,,,0.73,Wunderground v.1.15,2013-06-10 10:37:00,
2013-06-10 06:42:00,64.7,64.7,30.06,SE,138,0.0,1.0,100,0.00,,,0.73,Wunderground v.1.15,2013-06-10 10:42:00,
2013-06-10 06:47:00,64.7,64.7,30.06,South,169,0.0,2.0,100,0.00,,,0.73,Wunderground v.1.15,2013-06-10 10:47:00,
2013-06-10 06:52:00,64.7,64.7,30.07,South,169,0.0,0.0,100,0.00,,,0.73,Wunderground v.1.15,2013-06-10 10:52:00,
2013-06-10 06:57:00,64.7,64.7,30.06,South,169,0.0,1.0,100,0.00,,,0.73,Wunderground v.1.15,2013-06-10 10:57:00,
2013-06-10 07:02:00,64.6,64.6,30.06,South,188,0.0,0.0,100,0.00,,,0.73,Wunderground v.1.15,2013-06-10 11:02:00,
2013-06-10 07:07:00,64.6,64.6,30.07,South,188,0.0,1.0,100,0.00,,,0.73,Wunderground v.1.15,2013-06-10 11:07:00,
2013-06-10 07:12:00,64.6,64.6,30.07,South,188,0.0,1.0,100,0.00,,,0.73,Wunderground v.1.15,2013-06-10 11:12:00,
2013-06-10 07:17:00,64.6,64.6,30.07,SSE,161,0.0,3.0,100,0.00,,,0.73,Wunderground v.1.15,2013-06-10 11:17:00,
2013-06-10 07:22:00,64.7,64.7,30.07,SSE,157,0.0,1.0,100,0.00,,,0.73,Wunderground v.1.15,2013-06-10 11:22:00,
2013-06-10 07:27:00,64.8,64.8,30.07,East,95,0.0,1.0,100,0.00,,,0.73,Wunderground v.1.15,2013-06-10 11:27:00,
2013-06-10 07:32:00,65.0,65.0,30.07,East,95,0.0,0.0,100,0.00,,,0.73,Wunderground v.1.15,2013-06-10 11:32:00,
2013-06-10 07:37:00,65.1,65.1,30.07,SSE,166,0.0,3.0,100,0.00,,,0.73,Wunderground v.1.15,2013-06-10 11:37:00,
2013-06-10 07:42:00,65.3,65.3,30.07,SSE,166,0.0,1.0,100,0.00,,,0.73,Wunderground v.1.15,2013-06-10 11:42:00,
2013-06-10 07:47:00,65.4,65.4,30.07,South,190,0.0,2.0,100,0.00,,,0.73,Wunderground v.1.15,2013-06-10 11:47:00,
2013-06-10 07:52:00,65.3,65.3,30.07,South,190,0.0,1.0,100,0.00,,,0.73,Wunderground v.1.15,2013-06-10 11:52:00,
2013-06-10 07:57:00,65.4,65.4,30.06,South,190,0.0,1.0,100,0.00,,,0.73,Wunderground v.1.15,2013-06-10 11:57:00,
2013-06-10 08:02:00,65.4,65.4,30.06,SSW,205,0.0,1.0,100,0.00,,,0.73,Wunderground v.1.15,2013-06-10 12:02:00,
2013-06-10 08:07:00,65.4,65.4,30.07,SSW,205,0.0,1.0,100,0.00,,,0.73,Wunderground v.1.15,2013-06-10 12:07:00,
2013-06-10 08:12:00,65.4,65.4,30.08,SSW,205,0.0,0.0,100,0.00,,,0.73,Wunderground v.1.15,2013-06-10 12:12:00,
2013-06-10 08:17:00,65.5,65.5,30.07,SSW,199,0.0,1.0,100,0.00,,,0.73,Wunderground v.1.15,2013-06-10 12:17:00,
2013-06-10 08:22:00,65.6,65.6,30.07,SSE,154,0.0,2.0,100,0.00,,,0.73,Wunderground v.1.15,2013-06-10 12:22:00,
2013-06-10 08:27:00,65.7,65.7,30.07,SSE,154,0.0,2.0,100,0.00,,,0.73,Wunderground v.1.15,2013-06-10 12:27:00,
2013-06-10 08:32:00,65.9,65.9,30.07,SSE,154,0.0,0.0,100,0.00,,,0.73,Wunderground v.1.15,2013-06-10 12:32:00,
2013-06-10 08:37:00,65.9,65.9,30.07,SSE,154,0.0,1.0,100,0.00,,,0.73,Wunderground v.1.15,2013-06-10 12:37:00,
2013-06-10 08:42:00,66.0,66.0,30.07,SSE,154,0.0,0.0,100,0.00,,,0.73,Wunderground v.1.15,2013-06-10 12:42:00,
2013-06-10 08:48:00,66.1,66.1,30.07,SSE,154,0.0,1.0,100,0.00,,,0.73,Wunderground v.1.15,2013-06-10 12:48:00,
2013-06-10 08:53:00,66.2,66.2,30.07,SSE,154,0.0,2.0,100,0.00,,,0.73,Wunderground v.1.15,2013-06-10 12:53:00,
2013-06-10 08:58:00,66.4,66.4,30.07,SSE,154,0.0,2.0,100,0.00,,,0.73,Wunderground v.1.15,2013-06-10 12:58:00,
2013-06-10 09:03:00,66.7,66.7,30.07,East,101,0.0,2.0,100,0.00,,,0.73,Wunderground v.1.15,2013-06-10 13:03:00,
2013-06-10 09:08:00,66.9,66.9,30.07,NNW,337,0.0,2.0,100,0.00,,,0.73,Wunderground v.1.15,2013-06-10 13:08:00,
2013-06-10 09:13:00,67.0,67.0,30.07,WNW,298,0.0,2.0,100,0.00,,,0.73,Wunderground v.1.15,2013-06-10 13:13:00,
2013-06-10 09:18:00,67.3,67.3,30.07,South,171,0.0,2.0,100,0.00,,,0.73,Wunderground v.1.15,2013-06-10 13:18:00,
2013-06-10 09:23:00,67.5,67.5,30.07,South,175,0.0,2.0,100,0.00,,,0.73,Wunderground v.1.15,2013-06-10 13:23:00,
2013-06-10 09:28:00,67.5,67.5,30.07,South,175,0.0,2.0,100,0.00,,,0.73,Wunderground v.1.15,2013-06-10 13:28:00,
2013-06-10 09:33:00,67.7,67.7,30.06,South,175,0.0,1.0,100,0.00,,,0.73,Wunderground v.1.15,2013-06-10 13:33:00,
2013-06-10 09:38:00,67.9,67.9,30.07,South,175,0.0,2.0,100,0.00,,,0.73,Wunderground v.1.15,2013-06-10 13:38:00,
2013-06-10 09:43:00,68.2,68.2,30.06,South,175,0.0,1.0,100,0.00,,,0.73,Wunderground v.1.15,2013-06-10 13:43:00,
2013-06-10 09:48:00,68.4,68.4,30.07,North,11,0.0,2.0,100,0.00,,,0.73,Wunderground v.1.15,2013-06-10 13:48:00,
2013-06-10 09:53:00,68.5,68.5,30.07,NNW,339,0.0,0.0,100,0.00,,,0.73,Wunderground v.1.15,2013-06-10 13:53:00,
2013-06-10 09:58:00,68.5,68.5,30.06,NNW,339,0.0,1.0,100,0.00,,,0.73,Wunderground v.1.15,2013-06-10 13:58:00,
2013-06-10 10:03:00,68.6,68.6,30.06,NNW,339,0.0,0.0,100,0.00,,,0.73,Wunderground v.1.15,2013-06-10 14:03:00,
2013-06-10 10:08:00,68.6,68.6,30.06,NNW,338,1.0,1.0,100,0.00,,,0.73,Wunderground v.1.15,2013-06-10 14:08:00,
2013-06-10 10:13:00,68.8,68.8,30.06,NNW,334,1.0,1.0,100,0.00,,,0.73,Wunderground v.1.15,2013-06-10 14:13:00,
2013-06-10 10:18:00,68.9,68.9,30.06,SSE,159,0.0,3.0,100,0.00,,,0.73,Wunderground v.1.15,2013-06-10 14:18:00,
2013-06-10 10:22:00,69.0,69.0,30.06,SSE,161,1.0,2.0,100,0.00,,,0.73,Wunderground v.1.15,2013-06-10 14:22:00,
2013-06-10 10:27:00,69.1,68.8,30.06,SSE,160,1.0,2.0,99,0.00,,,0.73,Wunderground v.1.15,2013-06-10 14:27:00,
2013-06-10 10:33:00,69.1,68.8,30.06,South,169,1.0,3.0,99,0.00,,,0.73,Wunderground v.1.15,2013-06-10 14:33:00,
2013-06-10 10:38:00,69.2,68.9,30.05,NNE,15,0.0,3.0,99,0.00,,,0.73,Wunderground v.1.15,2013-06-10 14:38:00,
2013-06-10 10:43:00,69.3,69.0,30.05,SSW,195,0.0,3.0,99,0.00,,,0.73,Wunderground v.1.15,2013-06-10 14:43:00,
2013-06-10 10:48:00,69.5,69.5,30.05,SSW,196,0.0,3.0,100,0.00,,,0.73,Wunderground v.1.15,2013-06-10 14:48:00,
2013-06-10 10:53:00,69.8,69.8,30.05,SE,124,1.0,1.0,100,0.00,,,0.73,Wunderground v.1.15,2013-06-10 14:53:00,
2013-06-10 10:58:00,70.2,69.6,30.05,SE,142,0.0,2.0,98,0.00,,,0.73,Wunderground v.1.15,2013-06-10 14:58:00,
2013-06-10 11:03:00,70.4,69.5,30.05,SSE,167,0.0,7.0,97,0.00,,,0.73,Wunderground v.1.15,2013-06-10 15:03:00,
2013-06-10 11:08:00,70.6,69.7,30.05,North,355,0.0,7.0,97,0.00,,,0.73,Wunderground v.1.15,2013-06-10 15:08:00,
2013-06-10 11:13:00,70.6,69.4,30.05,WSW,254,0.0,2.0,96,0.00,,,0.73,Wunderground v.1.15,2013-06-10 15:13:00,
2013-06-10 11:18:00,70.5,69.3,30.05,WSW,254,0.0,2.0,96,0.00,,,0.73,Wunderground v.1.15,2013-06-10 15:18:00,
2013-06-10 11:23:00,70.5,69.6,30.05,WSW,254,0.0,1.0,97,0.00,,,0.73,Wunderground v.1.15,2013-06-10 15:23:00,
2013-06-10 11:28:00,70.5,69.3,30.05,NNW,344,0.0,1.0,96,0.00,,,0.73,Wunderground v.1.15,2013-06-10 15:28:00,
2013-06-10 11:33:00,70.6,69.7,30.05,North,351,0.0,1.0,97,0.00,,,0.73,Wunderground v.1.15,2013-06-10 15:33:00,
2013-06-10 11:38:00,70.9,70.0,30.05,SW,234,0.0,1.0,97,0.00,,,0.73,Wunderground v.1.15,2013-06-10 15:38:00,
2013-06-10 11:43:00,71.1,69.9,30.05,SW,234,1.0,1.0,96,0.00,,,0.73,Wunderground v.1.15,2013-06-10 15:43:00,
2013-06-10 11:48:00,71.4,70.2,30.05,NNW,348,1.0,2.0,96,0.00,,,0.73,Wunderground v.1.15,2013-06-10 15:48:00,
2013-06-10 11:53:00,71.6,70.4,30.05,NNW,348,0.0,1.0,96,0.00,,,0.73,Wunderground v.1.15,2013-06-10 15:53:00,
2013-06-10 11:58:00,71.8,70.0,30.04,ENE,58,0.0,2.0,94,0.00,,,0.73,Wunderground v.1.15,2013-06-10 15:58:00,
2013-06-10 12:03:00,71.9,69.8,30.04,SE,133,1.0,1.0,93,0.00,,,0.73,Wunderground v.1.15,2013-06-10 16:03:00,
2013-06-10 12:08:00,72.0,70.2,30.05,SE,133,0.0,1.0,94,0.00,,,0.73,Wunderground v.1.15,2013-06-10 16:08:00,
2013-06-10 12:13:00,72.0,69.9,30.05,SE,133,0.0,0.0,93,0.00,,,0.73,Wunderground v.1.15,2013-06-10 16:13:00,
2013-06-10 12:17:00,72.0,69.5,30.04,SSE,156,0.0,1.0,92,0.00,,,0.73,Wunderground v.1.15,2013-06-10 16:17:00,
2013-06-10 12:23:00,71.9,69.8,30.04,SSE,156,0.0,1.0,93,0.00,,,0.73,Wunderground v.1.15,2013-06-10 16:23:00,
2013-06-10 12:28:00,71.8,69.3,30.04,SSE,167,0.0,2.0,92,0.00,,,0.73,Wunderground v.1.15,2013-06-10 16:28:00,
2013-06-10 12:33:00,71.6,69.2,30.04,SSE,167,0.0,1.0,92,0.00,,,0.73,Wunderground v.1.15,2013-06-10 16:33:00,
2013-06-10 12:38:00,71.2,69.1,30.06,West,281,4.0,4.0,93,0.00,,,0.73,Wunderground v.1.15,2013-06-10 16:38:00,
2013-06-10 12:43:00,69.4,67.6,30.07,West,275,3.0,3.0,94,0.00,,,0.74,Wunderground v.1.15,2013-06-10 16:43:00,
2013-06-10 12:48:00,66.9,63.9,30.07,WNW,288,0.0,6.0,90,0.15,,,0.75,Wunderground v.1.15,2013-06-10 16:48:00,
2013-06-10 12:53:00,65.0,62.6,30.05,WNW,288,0.0,2.0,92,0.20,,,0.77,Wunderground v.1.15,2013-06-10 16:53:00,
2013-06-10 12:58:00,64.1,62.3,30.05,WNW,288,0.0,2.0,94,0.14,,,0.78,Wunderground v.1.15,2013-06-10 16:58:00,
2013-06-10 13:03:00,63.6,62.7,30.05,WNW,288,0.0,1.0,97,0.14,,,0.79,Wunderground v.1.15,2013-06-10 17:03:00,
2013-06-10 13:08:00,63.3,62.7,30.06,WNW,288,0.0,1.0,98,0.17,,,0.81,Wunderground v.1.15,2013-06-10 17:08:00,
2013-06-10 13:13:00,63.1,62.8,30.06,WNW,288,0.0,0.0,99,0.12,,,0.82,Wunderground v.1.15,2013-06-10 17:13:00,
2013-06-10 13:18:00,63.1,63.1,30.06,WNW,288,0.0,1.0,100,0.13,,,0.83,Wunderground v.1.15,2013-06-10 17:18:00,
2013-06-10 13:23:00,63.2,63.2,30.06,WNW,288,0.0,1.0,100,0.10,,,0.84,Wunderground v.1.15,2013-06-10 17:23:00,
2013-06-10 13:28:00,63.2,63.2,30.04,NNW,345,0.0,4.0,100,0.12,,,0.85,Wunderground v.1.15,2013-06-10 17:28:00,
2013-06-10 13:33:00,63.1,63.1,30.04,North,355,0.0,3.0,100,0.12,,,0.85,Wunderground v.1.15,2013-06-10 17:33:00,
2013-06-10 13:38:00,63.0,63.0,30.03,North,360,0.0,3.0,100,0.09,,,0.86,Wunderground v.1.15,2013-06-10 17:38:00,
2013-06-10 13:43:00,63.0,63.0,30.03,NNE,30,0.0,0.0,100,0.10,,,0.87,Wunderground v.1.15,2013-06-10 17:43:00,
2013-06-10 13:48:00,63.0,63.0,30.03,North,355,1.0,5.0,100,0.08,,,0.87,Wunderground v.1.15,2013-06-10 17:48:00,
2013-06-10 13:53:00,63.0,63.0,30.03,North,360,0.0,3.0,100,0.06,,,0.88,Wunderground v.1.15,2013-06-10 17:53:00,
2013-06-10 13:58:00,63.1,63.1,30.04,North,360,0.0,3.0,100,0.06,,,0.88,Wunderground v.1.15,2013-06-10 17:58:00,
2013-06-10 14:03:00,63.2,63.2,30.04,North,360,0.0,0.0,100,0.06,,,0.89,Wunderground v.1.15,2013-06-10 18:03:00,
2013-06-10 14:08:00,63.4,63.4,30.04,North,360,0.0,1.0,100,0.06,,,0.89,Wunderground v.1.15,2013-06-10 18:08:00,
2013-06-10 14:13:00,63.6,63.6,30.04,North,360,0.0,0.0,100,0.05,,,0.89,Wunderground v.1.15,2013-06-10 18:13:00,
2013-06-10 14:18:00,63.8,63.8,30.04,North,360,0.0,0.0,100,0.00,,,0.89,Wunderground v.1.15,2013-06-10 18:18:00,
2013-06-10 14:23:00,64.1,64.1,30.04,North,360,0.0,0.0,100,0.00,,,0.89,Wunderground v.1.15,2013-06-10 18:23:00,
2013-06-10 14:28:00,64.6,64.6,30.04,North,360,0.0,0.0,100,0.00,,,0.89,Wunderground v.1.15,2013-06-10 18:28:00,
2013-06-10 14:33:00,65.2,65.2,30.04,North,360,0.0,0.0,100,0.00,,,0.89,Wunderground v.1.15,2013-06-10 18:33:00,
2013-06-10 14:38:00,65.9,65.9,30.03,North,360,0.0,0.0,100,0.00,,,0.89,Wunderground v.1.15,2013-06-10 18:38:00,
2013-06-10 14:43:00,66.3,66.3,30.02,North,360,0.0,0.0,100,0.00,,,0.89,Wunderground v.1.15,2013-06-10 18:43:00,
2013-06-10 14:48:00,66.6,66.6,30.02,North,360,0.0,0.0,100,0.00,,,0.89,Wunderground v.1.15,2013-06-10 18:48:00,
2013-06-10 14:53:00,67.1,67.1,30.02,North,360,0.0,0.0,100,0.00,,,0.89,Wunderground v.1.15,2013-06-10 18:53:00,
2013-06-10 14:58:00,67.4,67.4,30.02,SSE,148,0.0,2.0,100,0.00,,,0.89,Wunderground v.1.15,2013-06-10 18:58:00,
2013-06-10 15:03:00,67.8,67.8,30.02,SSE,148,0.0,0.0,100,0.00,,,0.89,Wunderground v.1.15,2013-06-10 19:03:00,
2013-06-10 15:08:00,68.3,68.0,30.02,SSE,165,0.0,2.0,99,0.00,,,0.89,Wunderground v.1.15,2013-06-10 19:08:00,
2013-06-10 15:13:00,68.8,68.5,30.02,SSE,165,0.0,2.0,99,0.00,,,0.89,Wunderground v.1.15,2013-06-10 19:13:00,
2013-06-10 15:18:00,69.0,68.7,30.02,South,175,0.0,2.0,99,0.00,,,0.89,Wunderground v.1.15,2013-06-10 19:18:00,
2013-06-10 15:23:00,69.3,69.0,30.02,South,175,0.0,0.0,99,0.00,,,0.89,Wunderground v.1.15,2013-06-10 19:23:00,
2013-06-10 15:28:00,69.3,68.4,30.02,South,175,0.0,1.0,97,0.00,,,0.89,Wunderground v.1.15,2013-06-10 19:28:00,
2013-06-10 15:33:00,69.4,68.8,30.02,South,175,0.0,0.0,98,0.00,,,0.89,Wunderground v.1.15,2013-06-10 19:33:00,
2013-06-10 15:38:00,69.4,68.5,30.02,South,175,0.0,1.0,97,0.00,,,0.89,Wunderground v.1.15,2013-06-10 19:38:00,
2013-06-10 15:43:00,69.4,68.2,30.01,South,175,0.0,1.0,96,0.00,,,0.89,Wunderground v.1.15,2013-06-10 19:43:00,
2013-06-10 15:48:00,69.5,68.0,30.01,SE,138,0.0,1.0,95,0.00,,,0.89,Wunderground v.1.15,2013-06-10 19:48:00,
2013-06-10 15:53:00,69.8,68.6,30.00,SE,138,0.0,1.0,96,0.00,,,0.89,Wunderground v.1.15,2013-06-10 19:53:00,
2013-06-10 15:58:00,70.2,68.7,30.00,SE,138,0.0,1.0,95,0.00,,,0.89,Wunderground v.1.15,2013-06-10 19:58:00,
2013-06-10 16:03:00,70.7,68.6,30.00,SE,138,0.0,1.0,93,0.00,,,0.89,Wunderground v.1.15,2013-06-10 20:03:00,
2013-06-10 16:08:00,71.0,67.9,30.00,South,171,3.0,3.0,90,0.00,,,0.89,Wunderground v.1.15,2013-06-10 20:08:00,
2013-06-10 16:13:00,71.5,68.1,30.00,South,171,0.0,2.0,89,0.00,,,0.89,Wunderground v.1.15,2013-06-10 20:13:00,
2013-06-10 16:18:00,71.8,68.4,30.00,South,171,0.0,2.0,89,0.00,,,0.89,Wunderground v.1.15,2013-06-10 20:18:00,
2013-06-10 16:23:00,71.9,68.2,29.99,South,171,0.0,0.0,88,0.00,,,0.89,Wunderground v.1.15,2013-06-10 20:23:00,
2013-06-10 16:28:00,72.1,68.3,29.99,South,171,0.0,1.0,88,0.00,,,0.89,Wunderground v.1.15,2013-06-10 20:28:00,
2013-06-10 16:33:00,72.2,67.8,29.99,South,171,0.0,1.0,86,0.00,,,0.89,Wunderground v.1.15,2013-06-10 20:33:00,
2013-06-10 16:38:00,72.2,67.4,29.99,South,171,0.0,1.0,85,0.00,,,0.89,Wunderground v.1.15,2013-06-10 20:38:00,
2013-06-10 16:43:00,72.3,65.8,29.99,South,171,0.0,1.0,80,0.00,,,0.89,Wunderground v.1.15,2013-06-10 20:43:00,
2013-06-10 16:48:00,72.5,64.5,29.99,SW,223,0.0,3.0,76,0.00,,,0.89,Wunderground v.1.15,2013-06-10 20:48:00,
2013-06-10 16:53:00,72.7,65.4,29.99,SW,223,0.0,1.0,78,0.00,,,0.89,Wunderground v.1.15,2013-06-10 20:53:00,
2013-06-10 16:58:00,72.9,64.1,29.99,SW,223,0.0,2.0,74,0.00,,,0.89,Wunderground v.1.15,2013-06-10 20:58:00,
2013-06-10 17:03:00,73.1,63.5,29.99,SW,223,0.0,2.0,72,0.00,,,0.89,Wunderground v.1.15,2013-06-10 21:03:00,
2013-06-10 17:08:00,73.2,63.2,29.99,SW,223,0.0,2.0,71,0.00,,,0.89,Wunderground v.1.15,2013-06-10 21:08:00,
2013-06-10 17:13:00,73.2,63.6,29.99,SW,223,0.0,1.0,72,0.00,,,0.89,Wunderground v.1.15,2013-06-10 21:13:00,
2013-06-10 17:18:00,73.3,64.9,30.00,SW,223,0.0,1.0,75,0.00,,,0.89,Wunderground v.1.15,2013-06-10 21:18:00,
2013-06-10 17:23:00,73.2,66.3,29.99,SW,223,0.0,0.0,79,0.00,,,0.89,Wunderground v.1.15,2013-06-10 21:23:00,
2013-06-10 17:28:00,73.1,64.3,30.00,SW,223,0.0,0.0,74,0.00,,,0.89,Wunderground v.1.15,2013-06-10 21:28:00,
2013-06-10 17:33:00,73.3,65.3,29.99,SW,223,0.0,0.0,76,0.00,,,0.89,Wunderground v.1.15,2013-06-10 21:33:00,
2013-06-10 17:38:00,73.6,64.8,29.99,SW,223,0.0,1.0,74,0.00,,,0.89,Wunderground v.1.15,2013-06-10 21:38:00,
2013-06-10 17:43:00,73.9,65.9,30.00,SW,223,0.0,1.0,76,0.00,,,0.89,Wunderground v.1.15,2013-06-10 21:43:00,
2013-06-10 17:48:00,74.1,62.9,30.00,SW,223,0.0,2.0,68,0.00,,,0.89,Wunderground v.1.15,2013-06-10 21:48:00,
2013-06-10 17:53:00,74.4,64.4,30.00,SW,223,0.0,1.0,71,0.00,,,0.89,Wunderground v.1.15,2013-06-10 21:53:00,
2013-06-10 17:58:00,74.6,66.1,30.00,SW,223,0.0,1.0,75,0.00,,,0.89,Wunderground v.1.15,2013-06-10 21:58:00,
2013-06-10 18:03:00,74.7,67.0,30.00,SW,223,0.0,1.0,77,0.00,,,0.89,Wunderground v.1.15,2013-06-10 22:03:00,
2013-06-10 18:08:00,74.7,67.4,30.00,SW,223,0.0,1.0,78,0.00,,,0.89,Wunderground v.1.15,2013-06-10 22:08:00,
2013-06-10 18:13:00,74.5,67.2,30.00,SW,223,0.0,1.0,78,0.00,,,0.89,Wunderground v.1.15,2013-06-10 22:13:00,
2013-06-10 18:18:00,74.4,67.8,30.00,SSW,209,0.0,1.0,80,0.00,,,0.89,Wunderground v.1.15,2013-06-10 22:18:00,
2013-06-10 18:23:00,74.4,67.8,30.00,SSW,209,0.0,2.0,80,0.00,,,0.89,Wunderground v.1.15,2013-06-10 22:23:00,
2013-06-10 18:28:00,74.2,68.0,30.00,SSW,209,0.0,2.0,81,0.00,,,0.89,Wunderground v.1.15,2013-06-10 22:28:00,
2013-06-10 18:33:00,74.2,68.7,30.00,SSW,209,0.0,2.0,83,0.00,,,0.89,Wunderground v.1.15,2013-06-10 22:33:00,
2013-06-10 18:38:00,74.2,68.3,30.00,SSW,209,0.0,2.0,82,0.00,,,0.89,Wunderground v.1.15,2013-06-10 22:38:00,
2013-06-10 18:43:00,74.2,68.7,30.00,SSW,209,1.0,1.0,83,0.00,,,0.89,Wunderground v.1.15,2013-06-10 22:43:00,
2013-06-10 18:48:00,74.1,64.5,30.00,SSW,209,0.0,2.0,72,0.00,,,0.89,Wunderground v.1.15,2013-06-10 22:48:00,
2013-06-10 18:53:00,74.1,63.7,30.00,SSW,209,0.0,0.0,70,0.00,,,0.89,Wunderground v.1.15,2013-06-10 22:53:00,
2013-06-10 18:58:00,74.0,64.4,30.00,SSW,209,0.0,0.0,72,0.00,,,0.89,Wunderground v.1.15,2013-06-10 22:58:00,
2013-06-10 19:03:00,73.8,64.6,30.00,SSW,209,0.0,0.0,73,0.00,,,0.89,Wunderground v.1.15,2013-06-10 23:03:00,
2013-06-10 19:08:00,73.7,64.9,29.99,SSW,209,0.0,1.0,74,0.00,,,0.89,Wunderground v.1.15,2013-06-10 23:08:00,
2013-06-10 19:13:00,73.7,63.3,29.99,SSW,209,0.0,0.0,70,0.00,,,0.89,Wunderground v.1.15,2013-06-10 23:13:00,
2013-06-10 19:18:00,73.7,63.7,29.99,SSW,209,0.0,1.0,71,0.00,,,0.89,Wunderground v.1.15,2013-06-10 23:18:00,
2013-06-10 19:23:00,73.7,64.9,29.99,SSW,209,0.0,1.0,74,0.00,,,0.89,Wunderground v.1.15,2013-06-10 23:23:00,
2013-06-10 19:28:00,73.7,68.6,29.99,SSW,209,0.0,1.0,84,0.00,,,0.89,Wunderground v.1.15,2013-06-10 23:28:00,
2013-06-10 19:33:00,73.7,68.9,29.99,SSW,209,0.0,1.0,85,0.00,,,0.89,Wunderground v.1.15,2013-06-10 23:33:00,
2013-06-10 19:38:00,73.6,69.5,29.98,South,184,1.0,2.0,87,0.00,,,0.89,Wunderground v.1.15,2013-06-10 23:38:00,
2013-06-10 19:43:00,73.3,69.2,29.98,South,184,0.0,1.0,87,0.00,,,0.89,Wunderground v.1.15,2013-06-10 23:43:00,
2013-06-10 19:48:00,73.1,69.0,29.98,South,184,0.0,1.0,87,0.00,,,0.89,Wunderground v.1.15,2013-06-10 23:48:00,
2013-06-10 19:53:00,72.9,69.1,29.98,South,184,0.0,1.0,88,0.00,,,0.89,Wunderground v.1.15,2013-06-10 23:53:00,
2013-06-10 19:58:00,72.6,68.8,29.98,South,184,0.0,1.0,88,0.00,,,0.89,Wunderground v.1.15,2013-06-10 23:58:00,
2013-06-10 20:03:00,72.3,68.9,29.99,South,184,0.0,1.0,89,0.00,,,0.89,Wunderground v.1.15,2013-06-11 00:03:00,
2013-06-10 20:08:00,72.0,68.6,29.99,South,184,0.0,1.0,89,0.00,,,0.89,Wunderground v.1.15,2013-06-11 00:08:00,
2013-06-10 20:13:00,71.7,68.3,29.99,South,184,1.0,1.0,89,0.00,,,0.89,Wunderground v.1.15,2013-06-11 00:13:00,
2013-06-10 20:18:00,71.4,68.3,29.99,South,184,0.0,2.0,90,0.00,,,0.89,Wunderground v.1.15,2013-06-11 00:18:00,
2013-06-10 20:23:00,71.1,68.3,29.99,South,184,0.0,0.0,91,0.00,,,0.89,Wunderground v.1.15,2013-06-11 00:23:00,
2013-06-10 20:28:00,70.9,68.1,29.99,South,184,0.0,0.0,91,0.00,,,0.89,Wunderground v.1.15,2013-06-11 00:28:00,
2013-06-10 20:33:00,70.6,68.2,29.99,South,184,0.0,0.0,92,0.00,,,0.89,Wunderground v.1.15,2013-06-11 00:33:00,
2013-06-10 20:38:00,70.4,68.3,29.99,South,184,0.0,0.0,93,0.00,,,0.89,Wunderground v.1.15,2013-06-11 00:38:00,
2013-06-10 20:43:00,70.1,68.0,29.99,South,184,0.0,0.0,93,0.00,,,0.89,Wunderground v.1.15,2013-06-11 00:43:00,
2013-06-10 20:48:00,70.0,68.2,29.99,SSW,192,0.0,0.0,94,0.00,,,0.89,Wunderground v.1.15,2013-06-11 00:48:00,
2013-06-10 20:53:00,69.8,68.0,29.99,SSW,192,0.0,1.0,94,0.00,,,0.89,Wunderground v.1.15,2013-06-11 00:53:00,
2013-06-10 20:58:00,69.5,67.7,29.99,SSW,192,0.0,1.0,94,0.00,,,0.89,Wunderground v.1.15,2013-06-11 00:58:00,
2013-06-10 21:03:00,69.3,67.8,30.00,SSW,192,0.0,0.0,95,0.00,,,0.89,Wunderground v.1.15,2013-06-11 01:03:00,
2013-06-10 21:08:00,69.1,67.6,30.00,SSW,192,0.0,0.0,95,0.00,,,0.89,Wunderground v.1.15,2013-06-11 01:08:00,
2013-06-10 21:13:00,69.0,67.8,30.00,SSW,192,0.0,0.0,96,0.00,,,0.89,Wunderground v.1.15,2013-06-11 01:13:00,
2013-06-10 21:18:00,68.8,67.6,30.01,SSW,192,0.0,0.0,96,0.00,,,0.89,Wunderground v.1.15,2013-06-11 01:18:00,
2013-06-10 21:23:00,68.6,67.4,30.01,SSW,192,0.0,0.0,96,0.00,,,0.89,Wunderground v.1.15,2013-06-11 01:23:00,
2013-06-10 21:28:00,68.4,67.5,30.01,SSW,192,0.0,0.0,97,0.00,,,0.89,Wunderground v.1.15,2013-06-11 01:28:00,
2013-06-10 21:33:00,68.3,67.4,30.01,SSW,192,0.0,0.0,97,0.00,,,0.89,Wunderground v.1.15,2013-06-11 01:33:00,
2013-06-10 21:38:00,68.2,67.3,30.01,SSW,192,0.0,0.0,97,0.00,,,0.89,Wunderground v.1.15,2013-06-11 01:38:00,
2013-06-10 21:43:00,68.1,67.5,30.02,SSW,192,0.0,0.0,98,0.00,,,0.89,Wunderground v.1.15,2013-06-11 01:43:00,
2013-06-10 21:48:00,67.9,67.3,30.02,SSW,192,0.0,0.0,98,0.00,,,0.89,Wunderground v.1.15,2013-06-11 01:48:00,
2013-06-10 21:53:00,67.8,67.2,30.02,SSW,192,0.0,0.0,98,0.00,,,0.89,Wunderground v.1.15,2013-06-11 01:53:00,
2013-06-10 21:58:00,67.7,67.4,30.03,SSW,192,0.0,1.0,99,0.00,,,0.89,Wunderground v.1.15,2013-06-11 01:58:00,
2013-06-10 22:03:00,67.7,67.4,30.03,SSW,192,0.0,1.0,99,0.00,,,0.89,Wunderground v.1.15,2013-06-11 02:03:00,
2013-06-10 22:08:00,67.6,67.3,30.03,SSW,192,0.0,1.0,99,0.00,,,0.89,Wunderground v.1.15,2013-06-11 02:08:00,
2013-06-10 22:13:00,67.5,67.2,30.03,SSW,192,0.0,0.0,99,0.00,,,0.89,Wunderground v.1.15,2013-06-11 02:13:00,
2013-06-10 22:18:00,67.5,67.5,30.03,SSW,192,0.0,0.0,100,0.00,,,0.89,Wunderground v.1.15,2013-06-11 02:18:00,
2013-06-10 22:23:00,67.5,67.5,30.04,SSW,192,0.0,0.0,100,0.00,,,0.89,Wunderground v.1.15,2013-06-11 02:23:00,
2013-06-10 22:28:00,67.5,67.5,30.04,SSW,192,0.0,0.0,100,0.00,,,0.89,Wunderground v.1.15,2013-06-11 02:28:00,
2013-06-10 22:33:00,67.5,67.5,30.04,SSW,192,0.0,0.0,100,0.00,,,0.89,Wunderground v.1.15,2013-06-11 02:33:00,
2013-06-10 22:38:00,67.4,67.4,30.04,SSW,192,0.0,0.0,100,0.00,,,0.89,Wunderground v.1.15,2013-06-11 02:38:00,
2013-06-10 22:43:00,67.4,67.4,30.05,SSW,192,0.0,0.0,100,0.00,,,0.89,Wunderground v.1.15,2013-06-11 02:43:00,
2013-06-10 22:48:00,67.3,67.3,30.05,SSW,192,0.0,0.0,100,0.00,,,0.89,Wunderground v.1.15,2013-06-11 02:48:00,
2013-06-10 22:53:00,67.3,67.3,30.05,SSW,192,0.0,0.0,100,0.00,,,0.89,Wunderground v.1.15,2013-06-11 02:53:00,
2013-06-10 22:58:00,67.2,67.2,30.05,SSW,192,0.0,0.0,100,0.00,,,0.89,Wunderground v.1.15,2013-06-11 02:58:00,
2013-06-10 23:03:00,67.1,67.1,30.05,SSW,192,0.0,0.0,100,0.00,,,0.89,Wunderground v.1.15,2013-06-11 03:03:00,
2013-06-10 23:08:00,67.0,67.0,30.04,SSW,192,0.0,0.0,100,0.00,,,0.89,Wunderground v.1.15,2013-06-11 03:08:00,
2013-06-10 23:13:00,66.9,66.9,30.05,SSW,192,0.0,0.0,100,0.00,,,0.89,Wunderground v.1.15,2013-06-11 03:13:00,
2013-06-10 23:18:00,66.8,66.8,30.04,SSW,192,0.0,0.0,100,0.00,,,0.89,Wunderground v.1.15,2013-06-11 03:18:00,
2013-06-10 23:23:00,66.7,66.7,30.04,SSW,192,0.0,0.0,100,0.00,,,0.89,Wunderground v.1.15,2013-06-11 03:23:00,
2013-06-10 23:28:00,66.6,66.6,30.05,SSW,192,0.0,0.0,100,0.00,,,0.89,Wunderground v.1.15,2013-06-11 03:28:00,
2013-06-10 23:33:00,66.6,66.6,30.05,SSW,192,0.0,0.0,100,0.00,,,0.89,Wunderground v.1.15,2013-06-11 03:33:00,
2013-06-10 23:38:00,66.5,66.5,30.05,SSW,192,0.0,0.0,100,0.00,,,0.89,Wunderground v.1.15,2013-06-11 03:38:00,
2013-06-10 23:43:00,66.5,66.5,30.04,SSW,192,0.0,1.0,100,0.00,,,0.89,Wunderground v.1.15,2013-06-11 03:43:00,
2013-06-10 23:48:00,66.4,66.4,30.05,SSW,192,0.0,1.0,100,0.00,,,0.89,Wunderground v.1.15,2013-06-11 03:48:00,
2013-06-10 23:53:00,66.4,66.4,30.05,SSW,192,0.0,0.0,100,0.00,,,0.89,Wunderground v.1.15,2013-06-11 03:53:00,
2013-06-10 23:58:00,66.4,66.4,30.05,SSW,192,0.0,0.0,100,0.00,,,0.00,Wunderground v.1.15,2013-06-11 03:58:00,